sensor_id;sensor_type;location;lat;lon;timestamp;pressure;altitude;pressure_sealevel;temperature;humidity
40073;BME280;25774;52.256;9.356;2022-09-09T00:03:37;99919.16;;;14.69;100.00
40073;BME280;25774;52.256;9.356;2022-09-09T00:06:09;99909.25;;;14.71;100.00
40073;BME280;25774;52.256;9.356;2022-09-09T00:09:10;99916.09;;;14.74;100.00
40073;BME280;25774;52.256;9.356;2022-09-09T00:11:51;99928.66;;;14.94;100.00
40073;BME280;25774;52.256;9.356;2022-09-09T00:14:19;99920.81;;;14.81;100.00
40073;BME280;25774;52.256;9.356;2022-09-09T00:16:55;99925.88;;;14.84;100.00
40073;BME280;25774;52.256;9.356;2022-09-09T00:19:41;99926.25;;;14.91;100.00
40073;BME280;25774;52.256;9.356;2022-09-09T00:22:22;99922.09;;;14.98;100.00
40073;BME280;25774;52.256;9.356;2022-09-09T00:24:53;99915.47;;;14.93;100.00
40073;BME280;25774;52.256;9.356;2022-09-09T00:29:57;99894.75;;;14.41;100.00
40073;BME280;25774;52.256;9.356;2022-09-09T00:32:28;99910.00;;;14.51;100.00
40073;BME280;25774;52.256;9.356;2022-09-09T00:35:24;99897.19;;;14.11;100.00
40073;BME280;25774;52.256;9.356;2022-09-09T00:37:54;99919.88;;;14.49;100.00
40073;BME280;25774;52.256;9.356;2022-09-09T00:40:33;99908.16;;;14.40;100.00
40073;BME280;25774;52.256;9.356;2022-09-09T00:43:24;99920.25;;;14.33;100.00
40073;BME280;25774;52.256;9.356;2022-09-09T00:52:01;99937.34;;;14.74;100.00
40073;BME280;25774;52.256;9.356;2022-09-09T00:54:40;99920.81;;;14.48;100.00
40073;BME280;25774;52.256;9.356;2022-09-09T00:57:30;99921.66;;;14.48;100.00
40073;BME280;25774;52.256;9.356;2022-09-09T01:00:45;99915.75;;;14.45;100.00
40073;BME280;25774;52.256;9.356;2022-09-09T01:11:22;99943.03;;;14.58;100.00
40073;BME280;25774;52.256;9.356;2022-09-09T01:13:55;99925.44;;;14.46;100.00
40073;BME280;25774;52.256;9.356;2022-09-09T01:16:24;99906.09;;;14.21;100.00
40073;BME280;25774;52.256;9.356;2022-09-09T01:18:52;99903.69;;;14.18;100.00
40073;BME280;25774;52.256;9.356;2022-09-09T01:21:43;99937.75;;;14.69;100.00
40073;BME280;25774;52.256;9.356;2022-09-09T01:24:43;99919.78;;;14.61;100.00
40073;BME280;25774;52.256;9.356;2022-09-09T01:27:12;99907.22;;;14.52;100.00
40073;BME280;25774;52.256;9.356;2022-09-09T01:29:39;99904.19;;;14.57;100.00
40073;BME280;25774;52.256;9.356;2022-09-09T01:35:48;99880.41;;;14.22;100.00
40073;BME280;25774;52.256;9.356;2022-09-09T01:38:25;99880.75;;;14.28;100.00
40073;BME280;25774;52.256;9.356;2022-09-09T01:40:53;99854.72;;;14.00;100.00
40073;BME280;25774;52.256;9.356;2022-09-09T01:43:22;99878.13;;;14.06;100.00
40073;BME280;25774;52.256;9.356;2022-09-09T01:45:53;99895.13;;;14.37;100.00
40073;BME280;25774;52.256;9.356;2022-09-09T01:48:21;99882.47;;;14.40;100.00
40073;BME280;25774;52.256;9.356;2022-09-09T01:50:47;99876.78;;;14.34;100.00
40073;BME280;25774;52.256;9.356;2022-09-09T01:53:15;99872.44;;;14.22;100.00
40073;BME280;25774;52.256;9.356;2022-09-09T01:55:49;99877.28;;;14.28;100.00
40073;BME280;25774;52.256;9.356;2022-09-09T02:01:24;99891.09;;;13.75;100.00
40073;BME280;25774;52.256;9.356;2022-09-09T02:03:56;99910.06;;;13.82;100.00
40073;BME280;25774;52.256;9.356;2022-09-09T02:06:30;99916.81;;;13.86;100.00
40073;BME280;25774;52.256;9.356;2022-09-09T02:08:58;99916.91;;;13.84;100.00
40073;BME280;25774;52.256;9.356;2022-09-09T02:11:28;99924.25;;;13.81;100.00
40073;BME280;25774;52.256;9.356;2022-09-09T02:13:57;99929.84;;;13.89;100.00
40073;BME280;25774;52.256;9.356;2022-09-09T02:19:06;99945.03;;;13.98;100.00
40073;BME280;25774;52.256;9.356;2022-09-09T02:21:34;99945.53;;;14.03;100.00
40073;BME280;25774;52.256;9.356;2022-09-09T02:24:05;99943.72;;;14.04;100.00
40073;BME280;25774;52.256;9.356;2022-09-09T02:26:37;99963.88;;;14.29;100.00
40073;BME280;25774;52.256;9.356;2022-09-09T02:29:11;99946.03;;;14.31;100.00
40073;BME280;25774;52.256;9.356;2022-09-09T02:31:39;99944.00;;;14.34;100.00
40073;BME280;25774;52.256;9.356;2022-09-09T02:34:07;99946.03;;;14.31;100.00
40073;BME280;25774;52.256;9.356;2022-09-09T02:36:36;99953.22;;;14.53;100.00
40073;BME280;25774;52.256;9.356;2022-09-09T02:39:05;99943.91;;;14.58;100.00
40073;BME280;25774;52.256;9.356;2022-09-09T02:41:34;99942.91;;;14.71;100.00
40073;BME280;25774;52.256;9.356;2022-09-09T02:44:00;99946.66;;;14.91;100.00
40073;BME280;25774;52.256;9.356;2022-09-09T02:49:10;99930.91;;;15.10;100.00
40073;BME280;25774;52.256;9.356;2022-09-09T02:51:53;99920.22;;;15.21;100.00
40073;BME280;25774;52.256;9.356;2022-09-09T02:54:32;99912.47;;;14.86;100.00
40073;BME280;25774;52.256;9.356;2022-09-09T02:57:16;99925.09;;;15.05;100.00
40073;BME280;25774;52.256;9.356;2022-09-09T02:59:45;99916.69;;;15.00;100.00
40073;BME280;25774;52.256;9.356;2022-09-09T03:02:12;99914.88;;;14.89;100.00
40073;BME280;25774;52.256;9.356;2022-09-09T03:04:38;99933.56;;;14.99;100.00
40073;BME280;25774;52.256;9.356;2022-09-09T03:07:03;99926.72;;;14.85;100.00
40073;BME280;25774;52.256;9.356;2022-09-09T03:09:30;99937.47;;;14.95;100.00
40073;BME280;25774;52.256;9.356;2022-09-09T03:11:55;99944.34;;;14.97;100.00
40073;BME280;25774;52.256;9.356;2022-09-09T03:14:22;99948.81;;;14.97;100.00
40073;BME280;25774;52.256;9.356;2022-09-09T03:16:51;99948.81;;;14.97;100.00
40073;BME280;25774;52.256;9.356;2022-09-09T03:19:17;99957.34;;;15.11;100.00
40073;BME280;25774;52.256;9.356;2022-09-09T03:21:44;99956.88;;;15.06;100.00
40073;BME280;25774;52.256;9.356;2022-09-09T03:24:10;99954.69;;;15.11;100.00
40073;BME280;25774;52.256;9.356;2022-09-09T03:26:36;99959.97;;;15.23;100.00
40073;BME280;25774;52.256;9.356;2022-09-09T03:29:03;99960.06;;;15.32;100.00
40073;BME280;25774;52.256;9.356;2022-09-09T03:31:35;99945.94;;;15.32;100.00
40073;BME280;25774;52.256;9.356;2022-09-09T03:34:02;99939.25;;;15.38;100.00
40073;BME280;25774;52.256;9.356;2022-09-09T03:36:27;99932.41;;;15.35;100.00
40073;BME280;25774;52.256;9.356;2022-09-09T03:38:54;99917.81;;;15.18;100.00
40073;BME280;25774;52.256;9.356;2022-09-09T03:41:22;99916.00;;;15.19;100.00
40073;BME280;25774;52.256;9.356;2022-09-09T03:43:52;99909.25;;;15.15;100.00
40073;BME280;25774;52.256;9.356;2022-09-09T03:46:19;99918.13;;;15.36;100.00
40073;BME280;25774;52.256;9.356;2022-09-09T03:48:45;99917.03;;;15.39;100.00
40073;BME280;25774;52.256;9.356;2022-09-09T03:51:10;99908.03;;;15.51;100.00
40073;BME280;25774;52.256;9.356;2022-09-09T03:53:36;99914.88;;;15.53;100.00
40073;BME280;25774;52.256;9.356;2022-09-09T03:56:04;99899.19;;;15.50;100.00
40073;BME280;25774;52.256;9.356;2022-09-09T03:58:33;99889.44;;;15.40;100.00
40073;BME280;25774;52.256;9.356;2022-09-09T04:01:04;99887.44;;;15.32;100.00
40073;BME280;25774;52.256;9.356;2022-09-09T04:03:30;99893.03;;;15.50;100.00
40073;BME280;25774;52.256;9.356;2022-09-09T04:05:57;99887.97;;;15.47;100.00
40073;BME280;25774;52.256;9.356;2022-09-09T04:08:23;99894.19;;;15.57;100.00
40073;BME280;25774;52.256;9.356;2022-09-09T04:10:50;99892.56;;;15.66;100.00
40073;BME280;25774;52.256;9.356;2022-09-09T04:13:17;99892.66;;;15.54;100.00
40073;BME280;25774;52.256;9.356;2022-09-09T04:15:44;99894.72;;;15.51;100.00
40073;BME280;25774;52.256;9.356;2022-09-09T04:18:11;99894.03;;;15.17;100.00
40073;BME280;25774;52.256;9.356;2022-09-09T04:20:37;99915.22;;;15.28;100.00
40073;BME280;25774;52.256;9.356;2022-09-09T04:23:03;99912.25;;;15.21;100.00
40073;BME280;25774;52.256;9.356;2022-09-09T04:25:30;99926.81;;;15.38;100.00
40073;BME280;25774;52.256;9.356;2022-09-09T04:27:56;99934.47;;;15.52;100.00
40073;BME280;25774;52.256;9.356;2022-09-09T04:30:22;99938.56;;;15.68;100.00
40073;BME280;25774;52.256;9.356;2022-09-09T04:32:49;99921.06;;;15.54;100.00
40073;BME280;25774;52.256;9.356;2022-09-09T04:35:14;99927.19;;;15.33;100.00
40073;BME280;25774;52.256;9.356;2022-09-09T04:37:40;99941.28;;;15.66;100.00
40073;BME280;25774;52.256;9.356;2022-09-09T04:40:07;99915.41;;;15.47;100.00
40073;BME280;25774;52.256;9.356;2022-09-09T04:42:38;99936.75;;;15.57;100.00
40073;BME280;25774;52.256;9.356;2022-09-09T04:45:05;99930.72;;;15.55;100.00
40073;BME280;25774;52.256;9.356;2022-09-09T04:47:31;99948.09;;;15.59;100.00
40073;BME280;25774;52.256;9.356;2022-09-09T04:49:57;99936.03;;;15.55;100.00
40073;BME280;25774;52.256;9.356;2022-09-09T04:52:23;99942.44;;;15.64;100.00
40073;BME280;25774;52.256;9.356;2022-09-09T04:54:49;99959.13;;;15.87;100.00
40073;BME280;25774;52.256;9.356;2022-09-09T04:57:14;99950.97;;;15.99;100.00
40073;BME280;25774;52.256;9.356;2022-09-09T04:59:40;99939.41;;;15.89;100.00
40073;BME280;25774;52.256;9.356;2022-09-09T05:02:06;99936.56;;;16.02;100.00
40073;BME280;25774;52.256;9.356;2022-09-09T05:04:32;99932.59;;;15.96;100.00
40073;BME280;25774;52.256;9.356;2022-09-09T05:06:58;99934.78;;;15.91;100.00
40073;BME280;25774;52.256;9.356;2022-09-09T05:09:24;99927.84;;;15.79;100.00
40073;BME280;25774;52.256;9.356;2022-09-09T05:11:52;99939.22;;;15.81;100.00
40073;BME280;25774;52.256;9.356;2022-09-09T05:14:18;99942.44;;;16.06;100.00
40073;BME280;25774;52.256;9.356;2022-09-09T05:16:46;99931.50;;;15.99;100.00
40073;BME280;25774;52.256;9.356;2022-09-09T05:19:12;99921.09;;;15.96;100.00
40073;BME280;25774;52.256;9.356;2022-09-09T05:21:38;99913.31;;;15.83;100.00
40073;BME280;25774;52.256;9.356;2022-09-09T05:24:03;99917.34;;;15.66;100.00
40073;BME280;25774;52.256;9.356;2022-09-09T05:26:30;99917.53;;;15.53;100.00
40073;BME280;25774;52.256;9.356;2022-09-09T05:28:56;99931.16;;;15.39;100.00
40073;BME280;25774;52.256;9.356;2022-09-09T05:31:22;99948.50;;;15.54;100.00
40073;BME280;25774;52.256;9.356;2022-09-09T05:33:48;99948.03;;;15.49;100.00
40073;BME280;25774;52.256;9.356;2022-09-09T05:36:19;99955.75;;;15.52;100.00
40073;BME280;25774;52.256;9.356;2022-09-09T05:38:45;99953.09;;;15.52;100.00
40073;BME280;25774;52.256;9.356;2022-09-09T05:41:11;99970.34;;;15.69;100.00
40073;BME280;25774;52.256;9.356;2022-09-09T05:43:38;99973.00;;;15.69;100.00
40073;BME280;25774;52.256;9.356;2022-09-09T05:46:06;99987.22;;;16.00;100.00
40073;BME280;25774;52.256;9.356;2022-09-09T05:48:35;99973.09;;;16.21;100.00
40073;BME280;25774;52.256;9.356;2022-09-09T05:51:01;99960.41;;;16.34;100.00
40073;BME280;25774;52.256;9.356;2022-09-09T05:53:28;99947.28;;;16.52;100.00
40073;BME280;25774;52.256;9.356;2022-09-09T05:58:29;99939.69;;;16.38;100.00
40073;BME280;25774;52.256;9.356;2022-09-09T06:01:09;99940.84;;;16.24;100.00
40073;BME280;25774;52.256;9.356;2022-09-09T06:03:36;99937.19;;;16.15;100.00
40073;BME280;25774;52.256;9.356;2022-09-09T06:06:09;99923.94;;;16.04;100.00
40073;BME280;25774;52.256;9.356;2022-09-09T06:08:38;99946.09;;;16.35;100.00
40073;BME280;25774;52.256;9.356;2022-09-09T06:11:07;99928.72;;;16.10;100.00
40073;BME280;25774;52.256;9.356;2022-09-09T06:13:32;99923.56;;;16.09;100.00
40073;BME280;25774;52.256;9.356;2022-09-09T06:15:58;99945.81;;;16.08;100.00
40073;BME280;25774;52.256;9.356;2022-09-09T06:18:26;99954.50;;;16.31;100.00
40073;BME280;25774;52.256;9.356;2022-09-09T06:20:58;99939.53;;;16.09;100.00
40073;BME280;25774;52.256;9.356;2022-09-09T06:23:24;99959.28;;;16.37;100.00
40073;BME280;25774;52.256;9.356;2022-09-09T06:25:50;99964.16;;;16.32;100.00
40073;BME280;25774;52.256;9.356;2022-09-09T06:28:16;99981.97;;;16.62;100.00
40073;BME280;25774;52.256;9.356;2022-09-09T06:30:42;99972.31;;;16.70;100.00
40073;BME280;25774;52.256;9.356;2022-09-09T06:33:08;99960.66;;;16.62;100.00
40073;BME280;25774;52.256;9.356;2022-09-09T06:35:34;99958.09;;;16.50;100.00
40073;BME280;25774;52.256;9.356;2022-09-09T06:38:00;99954.03;;;16.46;100.00
40073;BME280;25774;52.256;9.356;2022-09-09T06:40:25;99961.09;;;16.36;100.00
40073;BME280;25774;52.256;9.356;2022-09-09T06:42:50;99972.47;;;16.69;100.00
40073;BME280;25774;52.256;9.356;2022-09-09T06:45:16;99966.72;;;16.73;100.00
40073;BME280;25774;52.256;9.356;2022-09-09T06:47:42;99961.16;;;16.77;100.00
40073;BME280;25774;52.256;9.356;2022-09-09T06:50:08;99954.75;;;16.58;100.00
40073;BME280;25774;52.256;9.356;2022-09-09T06:52:33;99970.22;;;16.74;100.00
40073;BME280;25774;52.256;9.356;2022-09-09T06:54:59;99974.00;;;17.02;100.00
40073;BME280;25774;52.256;9.356;2022-09-09T06:57:24;99954.03;;;16.87;100.00
40073;BME280;25774;52.256;9.356;2022-09-09T06:59:50;99974.59;;;17.15;100.00
40073;BME280;25774;52.256;9.356;2022-09-09T07:02:15;99966.50;;;17.36;100.00
40073;BME280;25774;52.256;9.356;2022-09-09T07:04:41;99968.72;;;17.41;100.00
40073;BME280;25774;52.256;9.356;2022-09-09T07:07:07;99966.91;;;17.51;100.00
40073;BME280;25774;52.256;9.356;2022-09-09T07:09:33;99954.97;;;17.75;100.00
40073;BME280;25774;52.256;9.356;2022-09-09T07:11:59;99943.16;;;17.67;100.00
40073;BME280;25774;52.256;9.356;2022-09-09T07:14:24;99944.44;;;17.93;100.00
40073;BME280;25774;52.256;9.356;2022-09-09T07:16:50;99940.34;;;17.98;100.00
40073;BME280;25774;52.256;9.356;2022-09-09T07:19:16;99940.59;;;18.15;100.00
40073;BME280;25774;52.256;9.356;2022-09-09T07:21:42;99928.38;;;18.02;100.00
40073;BME280;25774;52.256;9.356;2022-09-09T07:24:08;99940.28;;;18.27;100.00
40073;BME280;25774;52.256;9.356;2022-09-09T07:26:36;99948.81;;;18.78;100.00
40073;BME280;25774;52.256;9.356;2022-09-09T07:29:02;99901.19;;;18.26;100.00
40073;BME280;25774;52.256;9.356;2022-09-09T07:31:29;99921.19;;;18.87;100.00
40073;BME280;25774;52.256;9.356;2022-09-09T07:33:59;99880.63;;;18.36;100.00
40073;BME280;25774;52.256;9.356;2022-09-09T07:36:35;99878.41;;;18.87;100.00
40073;BME280;25774;52.256;9.356;2022-09-09T07:39:07;99840.31;;;18.57;100.00
40073;BME280;25774;52.256;9.356;2022-09-09T07:41:38;99850.06;;;18.49;100.00
40073;BME280;25774;52.256;9.356;2022-09-09T07:44:06;99854.22;;;18.61;100.00
40073;BME280;25774;52.256;9.356;2022-09-09T07:46:32;99838.72;;;18.37;100.00
40073;BME280;25774;52.256;9.356;2022-09-09T07:48:59;99841.03;;;18.50;100.00
40073;BME280;25774;52.256;9.356;2022-09-09T07:51:29;99847.44;;;18.67;100.00
40073;BME280;25774;52.256;9.356;2022-09-09T07:53:57;99833.25;;;18.39;100.00
40073;BME280;25774;52.256;9.356;2022-09-09T07:56:26;99845.03;;;18.73;100.00
40073;BME280;25774;52.256;9.356;2022-09-09T07:58:53;99846.31;;;18.87;100.00
40073;BME280;25774;52.256;9.356;2022-09-09T08:01:30;99851.97;;;18.84;100.00
40073;BME280;25774;52.256;9.356;2022-09-09T08:03:59;99859.00;;;18.85;100.00
40073;BME280;25774;52.256;9.356;2022-09-09T08:06:27;99852.56;;;18.78;100.00
40073;BME280;25774;52.256;9.356;2022-09-09T08:08:54;99836.03;;;18.65;100.00
40073;BME280;25774;52.256;9.356;2022-09-09T08:11:20;99852.44;;;18.97;100.00
40073;BME280;25774;52.256;9.356;2022-09-09T08:13:49;99833.66;;;18.89;100.00
40073;BME280;25774;52.256;9.356;2022-09-09T08:16:17;99839.06;;;18.79;100.00
40073;BME280;25774;52.256;9.356;2022-09-09T08:18:43;99857.25;;;18.94;100.00
40073;BME280;25774;52.256;9.356;2022-09-09T08:21:11;99849.00;;;18.87;100.00
40073;BME280;25774;52.256;9.356;2022-09-09T08:23:39;99856.91;;;18.79;100.00
40073;BME280;25774;52.256;9.356;2022-09-09T08:26:09;99856.41;;;19.11;100.00
40073;BME280;25774;52.256;9.356;2022-09-09T08:28:35;99846.25;;;19.15;100.00
40073;BME280;25774;52.256;9.356;2022-09-09T08:31:12;99858.94;;;19.31;100.00
40073;BME280;25774;52.256;9.356;2022-09-09T08:33:39;99865.19;;;19.39;100.00
40073;BME280;25774;52.256;9.356;2022-09-09T08:36:09;99830.94;;;18.71;100.00
40073;BME280;25774;52.256;9.356;2022-09-09T08:38:35;99840.97;;;19.23;100.00
40073;BME280;25774;52.256;9.356;2022-09-09T08:41:32;99862.63;;;19.56;100.00
40073;BME280;25774;52.256;9.356;2022-09-09T08:55:39;99853.09;;;19.53;100.00
40073;BME280;25774;52.256;9.356;2022-09-09T08:58:15;99864.78;;;19.70;100.00
40073;BME280;25774;52.256;9.356;2022-09-09T09:12:22;99858.28;;;19.98;100.00
40073;BME280;25774;52.256;9.356;2022-09-09T09:14:48;99857.28;;;20.34;100.00
40073;BME280;25774;52.256;9.356;2022-09-09T09:17:19;99837.13;;;20.21;100.00
40073;BME280;25774;52.256;9.356;2022-09-09T09:19:46;99864.13;;;20.71;100.00
40073;BME280;25774;52.256;9.356;2022-09-09T09:22:33;99823.78;;;20.38;100.00
40073;BME280;25774;52.256;9.356;2022-09-09T09:30:40;99754.28;;;20.44;100.00
40073;BME280;25774;52.256;9.356;2022-09-09T09:33:24;99815.75;;;21.29;100.00
40073;BME280;25774;52.256;9.356;2022-09-09T09:35:51;99803.66;;;21.09;100.00
40073;BME280;25774;52.256;9.356;2022-09-09T09:38:18;99782.22;;;20.84;100.00
40073;BME280;25774;52.256;9.356;2022-09-09T09:40:58;99766.44;;;20.65;100.00
40073;BME280;25774;52.256;9.356;2022-09-09T09:45:51;99751.84;;;20.76;100.00
40073;BME280;25774;52.256;9.356;2022-09-09T09:48:17;99770.81;;;21.15;100.00
40073;BME280;25774;52.256;9.356;2022-09-09T09:53:28;99753.22;;;20.88;100.00
40073;BME280;25774;52.256;9.356;2022-09-09T09:56:10;99780.88;;;21.54;100.00
40073;BME280;25774;52.256;9.356;2022-09-09T10:01:22;99753.19;;;21.21;100.00
40073;BME280;25774;52.256;9.356;2022-09-09T10:03:55;99776.50;;;21.53;100.00
40073;BME280;25774;52.256;9.356;2022-09-09T10:06:36;99714.16;;;20.77;100.00
40073;BME280;25774;52.256;9.356;2022-09-09T10:26:37;99671.75;;;19.55;100.00
40073;BME280;25774;52.256;9.356;2022-09-09T10:49:30;99742.38;;;22.71;100.00
40073;BME280;25774;52.256;9.356;2022-09-09T10:55:17;99557.50;;;21.19;100.00
40073;BME280;25774;52.256;9.356;2022-09-09T10:57:52;99640.38;;;21.62;100.00
40073;BME280;25774;52.256;9.356;2022-09-09T11:03:03;99714.78;;;21.12;100.00
40073;BME280;25774;52.256;9.356;2022-09-09T11:08:15;99743.47;;;20.95;100.00
40073;BME280;25774;52.256;9.356;2022-09-09T11:10:48;99753.69;;;20.83;100.00
40073;BME280;25774;52.256;9.356;2022-09-09T11:18:43;99739.41;;;20.50;100.00
40073;BME280;25774;52.256;9.356;2022-09-09T11:21:35;99749.91;;;20.35;100.00
40073;BME280;25774;52.256;9.356;2022-09-09T11:24:10;99755.59;;;20.24;100.00
40073;BME280;25774;52.256;9.356;2022-09-09T11:26:50;99784.56;;;20.29;100.00
40073;BME280;25774;52.256;9.356;2022-09-09T11:30:27;99770.19;;;20.30;100.00
40073;BME280;25774;52.256;9.356;2022-09-09T11:38:29;99737.75;;;20.07;100.00
40073;BME280;25774;52.256;9.356;2022-09-09T11:41:01;99713.84;;;20.05;100.00
40073;BME280;25774;52.256;9.356;2022-09-09T11:43:41;99756.03;;;20.62;100.00
40073;BME280;25774;52.256;9.356;2022-09-09T11:46:07;99777.50;;;20.86;100.00
40073;BME280;25774;52.256;9.356;2022-09-09T11:51:09;99737.28;;;21.19;100.00
40073;BME280;25774;52.256;9.356;2022-09-09T11:53:59;99716.94;;;21.33;100.00
40073;BME280;25774;52.256;9.356;2022-09-09T11:58:56;99743.44;;;21.52;100.00
40073;BME280;25774;52.256;9.356;2022-09-09T12:04:10;99749.50;;;21.54;100.00
40073;BME280;25774;52.256;9.356;2022-09-09T12:06:49;99766.03;;;21.74;100.00
40073;BME280;25774;52.256;9.356;2022-09-09T12:11:41;99751.78;;;22.21;100.00
40073;BME280;25774;52.256;9.356;2022-09-09T12:14:37;99731.59;;;22.25;100.00
40073;BME280;25774;52.256;9.356;2022-09-09T12:19:41;99677.03;;;22.17;100.00
40073;BME280;25774;52.256;9.356;2022-09-09T12:22:23;99676.59;;;22.59;100.00
40073;BME280;25774;52.256;9.356;2022-09-09T12:28:06;99641.72;;;23.04;100.00
40073;BME280;25774;52.256;9.356;2022-09-09T12:30:53;99556.34;;;22.83;100.00
40073;BME280;25774;52.256;9.356;2022-09-09T12:33:21;99668.09;;;22.70;100.00
40073;BME280;25774;52.256;9.356;2022-09-09T12:35:57;99648.41;;;22.32;100.00
40073;BME280;25774;52.256;9.356;2022-09-09T12:38:50;99613.84;;;21.67;100.00
40073;BME280;25774;52.256;9.356;2022-09-09T12:41:22;99582.72;;;20.94;100.00
40073;BME280;25774;52.256;9.356;2022-09-09T12:43:48;99639.28;;;21.48;100.00
40073;BME280;25774;52.256;9.356;2022-09-09T12:46:33;99666.56;;;21.59;100.00
40073;BME280;25774;52.256;9.356;2022-09-09T12:49:02;99681.69;;;21.92;100.00
40073;BME280;25774;52.256;9.356;2022-09-09T12:51:34;99712.59;;;21.96;100.00
40073;BME280;25774;52.256;9.356;2022-09-09T12:53:59;99753.66;;;22.04;100.00
40073;BME280;25774;52.256;9.356;2022-09-09T12:56:28;99771.50;;;21.97;100.00
40073;BME280;25774;52.256;9.356;2022-09-09T12:58:56;99785.13;;;21.96;100.00
40073;BME280;25774;52.256;9.356;2022-09-09T13:01:24;99759.00;;;21.73;100.00
40073;BME280;25774;52.256;9.356;2022-09-09T13:03:50;99739.53;;;21.71;100.00
40073;BME280;25774;52.256;9.356;2022-09-09T13:06:42;99741.13;;;21.97;100.00
40073;BME280;25774;52.256;9.356;2022-09-09T13:09:08;99703.53;;;21.89;100.00
40073;BME280;25774;52.256;9.356;2022-09-09T13:11:39;99713.16;;;21.75;100.00
40073;BME280;25774;52.256;9.356;2022-09-09T13:14:19;99734.59;;;22.31;100.00
40073;BME280;25774;52.256;9.356;2022-09-09T13:17:01;99721.44;;;22.36;100.00
40073;BME280;25774;52.256;9.356;2022-09-09T13:19:38;99698.53;;;22.48;100.00
40073;BME280;25774;52.256;9.356;2022-09-09T13:24:45;99681.91;;;22.67;100.00
40073;BME280;25774;52.256;9.356;2022-09-09T13:29:55;99710.13;;;22.17;100.00
40073;BME280;25774;52.256;9.356;2022-09-09T13:32:23;99713.50;;;22.19;100.00
40073;BME280;25774;52.256;9.356;2022-09-09T13:34:57;99695.88;;;22.09;100.00
40073;BME280;25774;52.256;9.356;2022-09-09T13:39:55;99685.31;;;22.07;100.00
40073;BME280;25774;52.256;9.356;2022-09-09T13:42:29;99673.28;;;22.49;100.00
40073;BME280;25774;52.256;9.356;2022-09-09T13:44:56;99696.69;;;23.09;100.00
40073;BME280;25774;52.256;9.356;2022-09-09T13:47:29;99637.09;;;23.57;100.00
40073;BME280;25774;52.256;9.356;2022-09-09T13:49:56;99623.22;;;23.89;100.00
40073;BME280;25774;52.256;9.356;2022-09-09T13:52:21;99598.47;;;24.01;100.00
40073;BME280;25774;52.256;9.356;2022-09-09T13:54:51;99646.88;;;24.30;100.00
40073;BME280;25774;52.256;9.356;2022-09-09T13:57:23;99575.81;;;24.17;100.00
40073;BME280;25774;52.256;9.356;2022-09-09T13:59:51;99593.72;;;24.24;100.00
40073;BME280;25774;52.256;9.356;2022-09-09T14:02:18;99595.28;;;24.55;100.00
40073;BME280;25774;52.256;9.356;2022-09-09T14:04:44;99529.44;;;23.63;100.00
40073;BME280;25774;52.256;9.356;2022-09-09T14:07:14;99564.81;;;23.09;100.00
40073;BME280;25774;52.256;9.356;2022-09-09T14:09:41;99674.34;;;23.68;100.00
40073;BME280;25774;52.256;9.356;2022-09-09T14:12:12;99618.31;;;23.63;100.00
40073;BME280;25774;52.256;9.356;2022-09-09T14:14:39;99599.66;;;23.62;100.00
40073;BME280;25774;52.256;9.356;2022-09-09T14:17:04;99635.78;;;23.82;100.00
40073;BME280;25774;52.256;9.356;2022-09-09T14:19:30;99668.41;;;23.73;100.00
40073;BME280;25774;52.256;9.356;2022-09-09T14:21:57;99674.16;;;23.84;100.00
40073;BME280;25774;52.256;9.356;2022-09-09T14:24:22;99625.31;;;23.73;100.00
40073;BME280;25774;52.256;9.356;2022-09-09T14:26:48;99548.84;;;23.74;100.00
40073;BME280;25774;52.256;9.356;2022-09-09T14:29:13;99562.78;;;23.62;100.00
40073;BME280;25774;52.256;9.356;2022-09-09T14:31:39;99597.50;;;24.08;100.00
40073;BME280;25774;52.256;9.356;2022-09-09T14:34:04;99459.50;;;23.70;100.00
40073;BME280;25774;52.256;9.356;2022-09-09T14:36:31;99455.09;;;23.84;100.00
40073;BME280;25774;52.256;9.356;2022-09-09T14:38:58;99646.69;;;24.10;100.00
40073;BME280;25774;52.256;9.356;2022-09-09T14:41:23;99585.84;;;23.50;100.00
40073;BME280;25774;52.256;9.356;2022-09-09T14:43:51;99609.81;;;23.15;100.00
40073;BME280;25774;52.256;9.356;2022-09-09T14:46:19;99614.13;;;22.87;100.00
40073;BME280;25774;52.256;9.356;2022-09-09T14:48:45;99629.06;;;22.89;100.00
40073;BME280;25774;52.256;9.356;2022-09-09T14:51:21;99672.31;;;22.88;100.00
40073;BME280;25774;52.256;9.356;2022-09-09T14:53:47;99696.81;;;22.93;100.00
40073;BME280;25774;52.256;9.356;2022-09-09T14:56:17;99705.78;;;23.08;100.00
40073;BME280;25774;52.256;9.356;2022-09-09T14:58:42;99670.00;;;22.85;100.00
40073;BME280;25774;52.256;9.356;2022-09-09T15:01:11;99688.59;;;22.94;100.00
40073;BME280;25774;52.256;9.356;2022-09-09T15:03:37;99665.03;;;22.73;100.00
40073;BME280;25774;52.256;9.356;2022-09-09T15:08:37;99615.78;;;23.11;100.00
40073;BME280;25774;52.256;9.356;2022-09-09T15:11:04;99672.31;;;23.55;100.00
40073;BME280;25774;52.256;9.356;2022-09-09T15:13:31;99684.88;;;23.78;100.00
40073;BME280;25774;52.256;9.356;2022-09-09T15:18:35;99627.72;;;23.82;100.00
40073;BME280;25774;52.256;9.356;2022-09-09T15:21:02;99613.31;;;23.90;100.00
40073;BME280;25774;52.256;9.356;2022-09-09T15:23:34;99521.34;;;23.63;100.00
40073;BME280;25774;52.256;9.356;2022-09-09T15:26:00;99530.03;;;23.59;100.00
40073;BME280;25774;52.256;9.356;2022-09-09T15:28:26;99586.75;;;23.72;100.00
40073;BME280;25774;52.256;9.356;2022-09-09T15:30:52;99511.84;;;23.46;100.00
40073;BME280;25774;52.256;9.356;2022-09-09T15:33:20;99578.56;;;23.65;100.00
40073;BME280;25774;52.256;9.356;2022-09-09T15:35:46;99668.78;;;23.70;100.00
40073;BME280;25774;52.256;9.356;2022-09-09T15:38:12;99542.84;;;23.57;100.00
40073;BME280;25774;52.256;9.356;2022-09-09T15:40:38;99433.25;;;23.36;100.00
40073;BME280;25774;52.256;9.356;2022-09-09T15:43:05;99517.25;;;23.31;100.00